createdAt,value
2017-07-24T00:00:18.897Z,28.00
2017-07-24T00:02:45.949Z,28.10
2017-07-24T00:05:13.761Z,28.00
2017-07-24T00:07:40.794Z,28.00
2017-07-24T00:10:07.947Z,28.10
2017-07-24T00:12:34.992Z,28.10
2017-07-24T00:15:02.053Z,28.10
2017-07-24T00:17:29.099Z,28.00
2017-07-24T00:19:56.148Z,28.00
2017-07-24T00:22:23.180Z,28.00
2017-07-24T00:24:50.207Z,28.10
2017-07-24T00:27:18.017Z,28.10
2017-07-24T00:29:45.049Z,28.00
2017-07-24T00:32:12.067Z,28.10
2017-07-24T00:34:39.872Z,28.00
2017-07-24T00:37:06.908Z,28.00
2017-07-24T00:39:33.948Z,27.90
2017-07-24T00:42:01.776Z,27.80
2017-07-24T00:44:28.814Z,27.80
2017-07-24T00:46:55.851Z,27.90
2017-07-24T00:49:22.898Z,27.90
2017-07-24T00:51:49.930Z,28.00
2017-07-24T00:54:16.961Z,28.00
2017-07-24T00:56:43.992Z,28.00
2017-07-24T00:59:11.796Z,28.10
2017-07-24T01:01:38.819Z,28.10
2017-07-24T01:04:06.649Z,28.10
2017-07-24T01:06:33.687Z,28.10
2017-07-24T01:09:00.725Z,28.10
2017-07-24T01:11:27.768Z,28.10
2017-07-24T01:13:54.801Z,28.10
2017-07-24T01:16:21.831Z,27.90
2017-07-24T01:18:48.876Z,27.90
2017-07-24T01:21:16.669Z,28.00
2017-07-24T01:23:43.705Z,27.90
2017-07-24T01:26:10.754Z,28.00
2017-07-24T01:28:37.789Z,28.10
2017-07-24T01:31:04.828Z,28.00
2017-07-24T01:33:32.631Z,28.00
2017-07-24T01:35:59.672Z,28.00
2017-07-24T01:38:26.714Z,28.00
2017-07-24T01:40:53.765Z,28.00
2017-07-24T01:43:20.793Z,28.00
2017-07-24T01:45:48.588Z,28.00
2017-07-24T01:48:15.629Z,28.00
2017-07-24T01:50:42.671Z,28.00
2017-07-24T01:53:09.714Z,27.80
2017-07-24T01:55:36.751Z,27.90
2017-07-24T01:58:04.562Z,27.90
2017-07-24T02:00:31.597Z,27.80
2017-07-24T02:02:58.650Z,27.80
2017-07-24T02:05:25.669Z,27.80
2017-07-24T02:07:54.073Z,27.70
2017-07-24T02:10:21.120Z,27.70
2017-07-24T02:12:48.210Z,27.70
2017-07-24T02:15:15.252Z,27.70
2017-07-24T02:17:42.289Z,27.70
2017-07-24T02:20:09.521Z,27.70
2017-07-24T02:22:36.813Z,27.70
2017-07-24T02:25:03.924Z,27.70
2017-07-24T02:27:30.957Z,27.70
2017-07-24T02:29:57.994Z,27.80
2017-07-24T02:32:25.045Z,27.80
2017-07-24T02:34:53.677Z,27.80
2017-07-24T02:37:20.940Z,27.80
2017-07-24T02:39:48.055Z,27.80
2017-07-24T02:42:15.351Z,27.80
2017-07-24T02:44:42.590Z,27.90
2017-07-24T02:47:11.151Z,27.80
2017-07-24T02:49:38.185Z,27.80
2017-07-24T02:52:05.207Z,27.70
2017-07-24T02:54:34.325Z,27.70
2017-07-24T02:57:02.226Z,27.70
2017-07-24T02:59:29.363Z,27.70
2017-07-24T03:01:56.412Z,27.80
2017-07-24T03:04:23.450Z,27.70
2017-07-24T03:06:50.485Z,27.70
2017-07-24T03:09:17.534Z,27.60
2017-07-24T03:11:44.667Z,27.70
2017-07-24T03:14:12.461Z,27.60
2017-07-24T03:16:39.500Z,27.50
2017-07-24T03:19:06.536Z,27.60
2017-07-24T03:21:34.351Z,27.60
2017-07-24T03:24:01.402Z,27.50
2017-07-24T03:26:28.432Z,27.50
2017-07-24T03:28:55.462Z,27.50
2017-07-24T03:31:22.511Z,27.50
2017-07-24T03:33:49.557Z,27.40
2017-07-24T03:36:16.598Z,27.50
2017-07-24T03:38:44.403Z,27.60
2017-07-24T03:41:11.437Z,27.50
2017-07-24T03:43:38.464Z,27.50
2017-07-24T03:46:06.272Z,27.50
2017-07-24T03:48:33.296Z,27.50
2017-07-24T03:51:00.333Z,27.60
2017-07-24T03:53:27.377Z,27.50
2017-07-24T03:55:55.168Z,27.60
2017-07-24T03:58:22.202Z,27.60
2017-07-24T04:00:49.235Z,27.60
2017-07-24T04:03:17.030Z,27.60
2017-07-24T04:05:44.061Z,27.50
2017-07-24T04:08:11.100Z,27.60
2017-07-24T04:10:38.896Z,27.60
2017-07-24T04:13:05.931Z,27.50
2017-07-24T04:15:33.021Z,27.60
2017-07-24T04:18:00.043Z,27.60
2017-07-24T04:20:27.084Z,27.60
2017-07-24T04:22:54.136Z,27.60
2017-07-24T04:25:21.169Z,27.50
2017-07-24T04:27:48.197Z,27.40
2017-07-24T04:30:16.011Z,27.40
2017-07-24T04:32:43.048Z,27.40
2017-07-24T04:35:10.078Z,27.40
2017-07-24T04:37:37.124Z,27.40
2017-07-24T04:40:04.157Z,27.40
2017-07-24T04:42:31.945Z,27.40
2017-07-24T04:44:58.989Z,27.40
2017-07-24T04:47:26.025Z,27.40
2017-07-24T04:49:53.821Z,27.40
2017-07-24T04:52:20.865Z,27.40
2017-07-24T04:54:47.901Z,27.40
2017-07-24T04:57:14.933Z,27.40
2017-07-24T04:59:42.750Z,27.40
2017-07-24T05:02:09.790Z,27.40
2017-07-24T05:04:36.825Z,27.40
2017-07-24T05:07:03.860Z,27.40
2017-07-24T05:09:30.898Z,27.40
2017-07-24T05:11:58.688Z,27.40
2017-07-24T05:14:25.729Z,27.30
2017-07-24T05:16:52.766Z,27.40
2017-07-24T05:19:19.802Z,27.40
2017-07-24T05:21:47.620Z,27.40
2017-07-24T05:24:14.749Z,27.40
2017-07-24T05:26:41.909Z,27.40
2017-07-24T05:29:08.962Z,27.40
2017-07-24T05:31:35.983Z,27.50
2017-07-24T05:34:03.145Z,27.50
2017-07-24T05:36:30.193Z,27.60
2017-07-24T05:38:57.240Z,27.60
2017-07-24T05:41:24.282Z,27.60
2017-07-24T05:43:51.328Z,27.60
2017-07-24T05:46:18.379Z,27.60
2017-07-24T05:48:45.422Z,27.60
2017-07-24T05:51:12.472Z,27.60
2017-07-24T05:53:39.518Z,27.60
2017-07-24T05:56:07.320Z,27.60
2017-07-24T05:58:34.378Z,27.60
2017-07-24T06:01:01.403Z,27.60
2017-07-24T06:03:28.439Z,27.70
2017-07-24T06:05:56.633Z,27.70
2017-07-24T06:08:23.676Z,27.70
2017-07-24T06:10:50.716Z,27.70
2017-07-24T06:13:17.751Z,27.60
2017-07-24T06:15:44.798Z,27.70
2017-07-24T06:18:11.833Z,27.60
2017-07-24T06:20:39.653Z,27.70
2017-07-24T06:23:06.685Z,27.60
2017-07-24T06:25:33.726Z,27.80
2017-07-24T06:28:00.780Z,27.60
2017-07-24T06:30:27.810Z,27.60
2017-07-24T06:32:54.837Z,27.50
2017-07-24T06:35:21.885Z,27.20
2017-07-24T06:37:48.915Z,27.00
2017-07-24T06:40:16.018Z,27.20
2017-07-24T06:42:44.017Z,27.10
2017-07-24T06:45:11.054Z,27.30
2017-07-24T06:47:38.075Z,27.30
2017-07-24T06:50:05.129Z,27.40
2017-07-24T06:52:32.158Z,27.40
2017-07-24T06:54:59.970Z,27.20
2017-07-24T06:57:27.053Z,27.20
2017-07-24T06:59:54.086Z,27.20
2017-07-24T07:02:21.120Z,27.30
2017-07-24T07:04:49.816Z,27.40
2017-07-24T07:07:16.849Z,27.40
2017-07-24T07:09:43.989Z,27.40
2017-07-24T07:12:11.037Z,27.20
2017-07-24T07:14:38.076Z,27.10
2017-07-24T07:17:05.110Z,27.30
2017-07-24T07:19:33.197Z,27.00
2017-07-24T07:22:00.238Z,27.00
2017-07-24T07:24:27.272Z,27.00
2017-07-24T07:26:55.091Z,27.10
2017-07-24T07:29:22.129Z,27.00
2017-07-24T07:31:49.151Z,27.00
2017-07-24T07:34:16.206Z,26.90
2017-07-24T07:36:43.237Z,27.00
2017-07-24T07:39:10.287Z,27.40
2017-07-24T07:41:38.101Z,27.60
2017-07-24T07:44:05.139Z,27.60
2017-07-24T07:46:32.182Z,27.70
2017-07-24T07:48:59.240Z,27.70
2017-07-24T07:51:26.260Z,27.70
2017-07-24T07:53:53.296Z,27.80
2017-07-24T07:56:20.370Z,27.70
2017-07-24T07:58:47.403Z,27.70
2017-07-24T08:01:14.445Z,27.80
2017-07-24T08:06:17.921Z,27.80
2017-07-24T08:08:44.980Z,27.80
2017-07-24T08:11:12.018Z,27.80
2017-07-24T08:13:39.059Z,27.90
2017-07-24T08:16:06.117Z,27.90
2017-07-24T08:18:33.167Z,27.90
2017-07-24T08:21:00.205Z,27.90
2017-07-24T08:23:27.253Z,27.90
2017-07-24T08:25:54.285Z,27.80
2017-07-24T08:28:21.321Z,27.80
2017-07-24T08:30:48.372Z,27.90
2017-07-24T08:33:15.396Z,27.80
2017-07-24T08:35:42.438Z,27.80
2017-07-24T08:38:10.236Z,27.90
2017-07-24T08:40:37.261Z,27.80
2017-07-24T08:43:04.284Z,27.90
2017-07-24T08:45:31.333Z,27.80
2017-07-24T08:47:59.128Z,27.90
2017-07-24T08:50:26.147Z,27.80
2017-07-24T08:52:53.203Z,27.90
2017-07-24T08:55:21.002Z,27.90
2017-07-24T08:57:48.042Z,27.90
2017-07-24T09:00:15.112Z,28.00
2017-07-24T09:02:42.157Z,28.00
2017-07-24T09:05:09.404Z,28.00
2017-07-24T09:07:36.446Z,28.00
2017-07-24T09:10:03.481Z,28.10
2017-07-24T09:12:30.513Z,28.10
2017-07-24T09:14:58.319Z,28.10
2017-07-24T09:17:25.349Z,28.10
2017-07-24T09:19:52.371Z,28.10
2017-07-24T09:22:20.180Z,28.20
2017-07-24T09:24:47.217Z,28.20
2017-07-24T09:27:14.249Z,28.20
2017-07-24T09:29:41.288Z,28.20
2017-07-24T09:32:09.080Z,28.30
2017-07-24T09:34:36.099Z,28.30
2017-07-24T09:37:03.921Z,28.50
2017-07-24T09:39:30.951Z,28.50
2017-07-24T09:41:57.980Z,28.60
2017-07-24T09:44:25.013Z,28.60
2017-07-24T09:46:52.808Z,28.70
2017-07-24T09:49:19.841Z,28.60
2017-07-24T09:51:46.892Z,28.70
2017-07-24T09:54:13.928Z,28.80
2017-07-24T09:56:41.720Z,29.40
2017-07-24T09:59:08.766Z,29.40
2017-07-24T10:01:35.792Z,29.60
2017-07-24T10:04:03.587Z,29.90
2017-07-24T10:06:30.639Z,29.90
2017-07-24T10:08:57.674Z,30.00
2017-07-24T10:11:24.700Z,30.50
2017-07-24T10:13:52.499Z,30.90
2017-07-24T10:16:19.548Z,30.80
2017-07-24T10:18:46.571Z,30.50
2017-07-24T10:21:14.381Z,29.80
2017-07-24T10:23:41.399Z,29.80
2017-07-24T10:26:08.433Z,30.00
2017-07-24T10:28:36.235Z,30.30
2017-07-24T10:31:03.282Z,30.30
2017-07-24T10:33:30.322Z,30.60
2017-07-24T10:35:57.386Z,31.00
2017-07-24T10:38:24.423Z,31.00
2017-07-24T10:40:51.449Z,31.20
2017-07-24T10:43:18.488Z,31.10
2017-07-24T10:45:46.289Z,31.40
2017-07-24T10:48:13.332Z,31.40
2017-07-24T10:50:40.365Z,31.40
2017-07-24T10:53:07.388Z,30.90
2017-07-24T10:55:35.193Z,30.70
2017-07-24T10:58:02.239Z,30.70
2017-07-24T11:00:29.272Z,30.90
2017-07-24T11:02:56.304Z,30.70
2017-07-24T11:05:24.117Z,30.50
2017-07-24T11:07:51.153Z,30.50
2017-07-24T11:10:18.185Z,30.60
2017-07-24T11:12:45.238Z,30.90
2017-07-24T11:15:12.277Z,30.90
2017-07-24T11:17:39.314Z,31.00
2017-07-24T11:20:07.129Z,30.60
2017-07-24T11:22:34.164Z,30.60
2017-07-24T11:25:01.200Z,30.50
2017-07-24T11:27:28.259Z,30.20
2017-07-24T11:29:55.292Z,30.30
2017-07-24T11:32:22.329Z,30.30
2017-07-24T11:34:50.139Z,30.50
2017-07-24T11:37:17.178Z,30.50
2017-07-24T11:39:44.320Z,30.50
2017-07-24T11:42:11.370Z,30.80
2017-07-24T11:44:38.407Z,30.80
2017-07-24T11:47:05.436Z,30.70
2017-07-24T11:49:33.249Z,31.10
2017-07-24T11:52:00.284Z,31.10
2017-07-24T11:54:27.324Z,30.90
2017-07-24T11:56:54.364Z,30.80
2017-07-24T11:59:21.401Z,30.80
2017-07-24T12:01:49.204Z,30.50
2017-07-24T12:04:16.249Z,30.50
2017-07-24T12:06:43.282Z,30.80
2017-07-24T12:09:10.308Z,30.70
2017-07-24T12:11:38.205Z,30.40
2017-07-24T12:14:05.236Z,30.40
2017-07-24T12:16:32.269Z,30.50
2017-07-24T12:19:00.077Z,31.00
2017-07-24T12:21:27.114Z,30.90
2017-07-24T12:23:54.144Z,31.20
2017-07-24T12:26:21.205Z,31.50
2017-07-24T12:28:48.237Z,31.60
2017-07-24T12:31:16.042Z,31.40
2017-07-24T12:33:43.087Z,31.30
2017-07-24T12:36:10.125Z,31.10
2017-07-24T12:38:37.162Z,31.10
2017-07-24T12:41:04.218Z,30.50
2017-07-24T12:43:31.247Z,30.50
2017-07-24T12:45:58.276Z,30.50
2017-07-24T12:48:26.088Z,30.60
2017-07-24T12:50:53.116Z,30.50
2017-07-24T12:53:20.137Z,30.60
2017-07-24T12:55:47.959Z,30.90
2017-07-24T12:58:15.002Z,30.90
2017-07-24T13:00:42.147Z,31.00
2017-07-24T13:03:09.197Z,30.90
2017-07-24T13:05:36.234Z,30.80
2017-07-24T13:08:03.273Z,30.90
2017-07-24T13:10:30.320Z,29.80
2017-07-24T13:12:57.369Z,29.30
2017-07-24T13:15:24.417Z,28.70
2017-07-24T13:17:51.461Z,28.50
2017-07-24T13:20:19.252Z,28.20
2017-07-24T13:22:46.284Z,28.20
2017-07-24T13:25:13.339Z,28.20
2017-07-24T13:27:40.411Z,28.20
2017-07-24T13:30:07.444Z,28.10
2017-07-24T13:32:34.491Z,28.00
2017-07-24T13:35:01.517Z,28.00
2017-07-24T13:37:29.317Z,27.90
2017-07-24T13:39:57.482Z,27.90
2017-07-24T13:42:25.889Z,27.80
2017-07-24T13:44:53.470Z,28.00
2017-07-24T13:47:21.599Z,28.40
2017-07-24T13:49:49.028Z,28.30
2017-07-24T13:52:17.129Z,28.30
2017-07-24T13:54:44.705Z,28.20
2017-07-24T13:57:12.080Z,28.40
2017-07-24T13:59:39.300Z,28.40
2017-07-24T14:02:06.766Z,28.50
2017-07-24T14:04:36.246Z,28.70
2017-07-24T14:07:04.974Z,28.60
2017-07-24T14:09:33.101Z,28.60
2017-07-24T14:12:01.526Z,28.60
2017-07-24T14:14:29.124Z,28.60
2017-07-24T14:16:56.443Z,28.70
2017-07-24T14:19:24.998Z,28.70
2017-07-24T14:21:52.468Z,28.70
2017-07-24T14:24:20.282Z,28.70
2017-07-24T14:26:48.212Z,28.80
2017-07-24T14:29:16.177Z,28.80
2017-07-24T14:31:44.503Z,28.80
2017-07-24T14:34:12.074Z,28.70
2017-07-24T14:36:39.998Z,28.90
2017-07-24T14:39:07.605Z,28.90
2017-07-24T14:41:35.842Z,28.90
2017-07-24T14:44:02.957Z,28.90
2017-07-24T14:46:30.497Z,28.80
2017-07-24T14:48:58.742Z,29.00
2017-07-24T14:51:26.721Z,29.00
2017-07-24T14:53:54.234Z,29.20
2017-07-24T14:56:21.591Z,29.10
2017-07-24T14:58:49.772Z,29.10
2017-07-24T15:01:17.124Z,29.10
2017-07-24T15:03:44.477Z,29.20
2017-07-24T15:06:11.938Z,29.30
2017-07-24T15:08:39.291Z,29.20
2017-07-24T15:11:06.962Z,29.40
2017-07-24T15:13:34.621Z,29.50
2017-07-24T15:16:02.093Z,29.50
2017-07-24T15:18:29.413Z,29.60
2017-07-24T15:20:57.611Z,29.50
2017-07-24T15:23:24.962Z,29.40
2017-07-24T15:25:52.868Z,29.40
2017-07-24T15:28:20.503Z,29.60
2017-07-24T15:30:47.852Z,29.60
2017-07-24T15:33:15.110Z,29.50
2017-07-24T15:35:42.454Z,29.40
2017-07-24T15:38:09.941Z,29.30
2017-07-24T15:40:37.487Z,29.20
2017-07-24T15:43:04.872Z,29.20
2017-07-24T15:45:32.837Z,29.20
2017-07-24T15:48:00.361Z,29.20
2017-07-24T15:50:28.531Z,29.30
2017-07-24T15:52:56.231Z,29.30
2017-07-24T15:55:24.685Z,29.30
2017-07-24T15:57:53.971Z,29.20
2017-07-24T16:00:22.424Z,29.20
2017-07-24T16:02:50.475Z,29.40
2017-07-24T16:05:17.510Z,29.40
2017-07-24T16:07:44.557Z,29.50
2017-07-24T16:10:11.591Z,29.60
2017-07-24T16:12:38.629Z,29.60
2017-07-24T16:15:05.672Z,29.70
2017-07-24T16:17:32.699Z,29.60
2017-07-24T16:20:00.491Z,29.60
2017-07-24T16:22:27.540Z,29.50
2017-07-24T16:24:54.567Z,29.60
2017-07-24T16:27:21.595Z,29.50
2017-07-24T16:29:49.414Z,29.30
2017-07-24T16:32:16.440Z,29.30
2017-07-24T16:34:43.477Z,29.30
2017-07-24T16:37:11.287Z,29.30
2017-07-24T16:39:38.320Z,29.30
2017-07-24T16:42:05.349Z,29.10
2017-07-24T16:44:32.398Z,29.10
2017-07-24T16:46:59.434Z,29.10
2017-07-24T16:49:27.229Z,29.20
2017-07-24T16:51:54.276Z,29.20
2017-07-24T16:54:21.427Z,29.20
2017-07-24T16:56:48.469Z,29.10
2017-07-24T16:59:15.509Z,29.20
2017-07-24T17:01:42.545Z,29.10
2017-07-24T17:04:09.584Z,29.20
2017-07-24T17:06:37.399Z,29.30
2017-07-24T17:09:04.433Z,29.30
2017-07-24T17:11:31.460Z,29.30
2017-07-24T17:13:58.521Z,29.20
2017-07-24T17:16:25.546Z,29.20
2017-07-24T17:18:53.360Z,29.00
2017-07-24T17:21:20.413Z,29.00
2017-07-24T17:23:47.440Z,29.00
2017-07-24T17:26:14.468Z,29.10
2017-07-24T17:28:41.520Z,29.10
2017-07-24T17:31:08.570Z,29.10
2017-07-24T17:33:35.593Z,29.00
2017-07-24T17:36:02.650Z,29.00
2017-07-24T17:38:30.457Z,29.00
2017-07-24T17:40:57.485Z,28.90
2017-07-24T17:43:24.546Z,28.90
2017-07-24T17:45:51.588Z,28.80
2017-07-24T17:48:18.614Z,28.70
2017-07-24T17:50:46.443Z,28.60
2017-07-24T17:53:13.499Z,28.50
2017-07-24T17:55:40.528Z,28.50
2017-07-24T17:58:07.588Z,28.40
2017-07-24T18:00:34.622Z,28.40
2017-07-24T18:03:01.658Z,28.30
2017-07-24T18:05:28.719Z,28.30
2017-07-24T18:07:55.854Z,28.40
2017-07-24T18:10:22.885Z,28.30
2017-07-24T18:12:49.946Z,28.20
2017-07-24T18:15:16.980Z,28.30
2017-07-24T18:17:44.027Z,28.20
2017-07-24T18:20:11.072Z,28.30
2017-07-24T18:22:38.876Z,28.30
2017-07-24T18:25:05.906Z,28.20
2017-07-24T18:27:32.949Z,28.20
2017-07-24T18:29:59.981Z,28.10
2017-07-24T18:32:27.784Z,28.00
2017-07-24T18:34:54.914Z,28.00
2017-07-24T18:37:21.934Z,28.10
2017-07-24T18:39:49.740Z,28.00
2017-07-24T18:42:16.787Z,27.90
2017-07-24T18:44:43.828Z,27.90
2017-07-24T18:47:10.884Z,27.90
2017-07-24T18:49:37.935Z,27.90
2017-07-24T18:52:04.968Z,28.00
2017-07-24T18:54:31.997Z,27.90
2017-07-24T18:56:59.804Z,27.80
2017-07-24T18:59:26.843Z,27.80
2017-07-24T19:01:53.877Z,28.00
2017-07-24T19:04:20.927Z,27.80
2017-07-24T19:06:47.961Z,28.00
2017-07-24T19:09:15.761Z,27.20
2017-07-24T19:11:42.805Z,27.10
2017-07-24T19:14:09.851Z,27.10
2017-07-24T19:16:36.889Z,27.30
2017-07-24T19:19:03.936Z,27.30
2017-07-24T19:21:30.967Z,27.80
2017-07-24T19:23:58.751Z,28.00
2017-07-24T19:26:25.814Z,28.00
2017-07-24T19:28:52.850Z,28.10
2017-07-24T19:31:19.885Z,28.10
2017-07-24T19:33:47.701Z,28.10
2017-07-24T19:36:14.732Z,28.10
2017-07-24T19:38:41.872Z,28.10
2017-07-24T19:41:08.924Z,28.20
2017-07-24T19:43:35.961Z,28.10
2017-07-24T19:46:02.992Z,28.00
2017-07-24T19:48:30.808Z,27.90
2017-07-24T19:50:59.499Z,27.90
2017-07-24T19:53:26.535Z,27.90
2017-07-24T19:55:53.575Z,27.70
2017-07-24T19:58:20.604Z,27.80
2017-07-24T20:00:47.634Z,27.90
2017-07-24T20:03:15.455Z,28.00
2017-07-24T20:05:42.484Z,28.00
2017-07-24T20:08:09.510Z,27.90
2017-07-24T20:10:36.573Z,27.80
2017-07-24T20:13:03.606Z,27.90
2017-07-24T20:15:30.636Z,27.90
2017-07-24T20:17:58.453Z,27.40
2017-07-24T20:20:25.489Z,27.30
2017-07-24T20:22:52.512Z,27.30
2017-07-24T20:25:19.561Z,27.20
2017-07-24T20:27:47.354Z,27.10
2017-07-24T20:30:14.389Z,27.10
2017-07-24T20:32:41.437Z,27.10
2017-07-24T20:35:08.455Z,27.20
2017-07-24T20:37:36.257Z,26.60
2017-07-24T20:40:03.296Z,26.60
2017-07-24T20:42:30.324Z,26.50
2017-07-24T20:44:58.129Z,25.90
2017-07-24T20:47:25.177Z,25.80
2017-07-24T20:49:52.217Z,25.50
2017-07-24T20:52:19.257Z,26.00
2017-07-24T20:54:46.297Z,26.00
2017-07-24T20:57:13.318Z,25.30
2017-07-24T20:59:40.340Z,25.40
2017-07-24T21:02:07.393Z,25.50
2017-07-24T21:04:34.494Z,25.60
2017-07-24T21:07:01.529Z,26.60
2017-07-24T21:09:29.328Z,25.30
2017-07-24T21:11:56.352Z,25.20
2017-07-24T21:14:24.153Z,25.10
2017-07-24T21:16:51.199Z,25.10
2017-07-24T21:19:18.233Z,25.10
2017-07-24T21:21:45.266Z,25.30
2017-07-24T21:24:12.321Z,25.60
2017-07-24T21:26:39.353Z,26.00
2017-07-24T21:29:07.154Z,26.00
2017-07-24T21:31:34.189Z,25.90
2017-07-24T21:34:01.224Z,25.90
2017-07-24T21:36:29.021Z,26.50
2017-07-24T21:38:56.165Z,26.50
2017-07-24T21:41:23.207Z,26.40
2017-07-24T21:43:50.241Z,26.20
2017-07-24T21:46:17.284Z,26.20
2017-07-24T21:48:45.090Z,26.20
2017-07-24T21:51:12.124Z,26.20
2017-07-24T21:53:39.167Z,26.10
2017-07-24T21:56:06.196Z,25.70
2017-07-24T21:58:33.992Z,25.70
2017-07-24T22:01:01.039Z,25.60
2017-07-24T22:03:28.080Z,25.60
2017-07-24T22:05:55.138Z,25.80
2017-07-24T22:08:22.180Z,26.00
2017-07-24T22:10:49.287Z,25.70
2017-07-24T22:13:18.170Z,25.60
2017-07-24T22:15:46.334Z,26.00
2017-07-24T22:18:13.381Z,25.90
2017-07-24T22:20:40.637Z,26.00
2017-07-24T22:23:07.829Z,26.10
2017-07-24T22:25:34.920Z,25.90
2017-07-24T22:28:02.085Z,25.80
2017-07-24T22:30:29.274Z,26.10
2017-07-24T22:32:56.440Z,25.80
2017-07-24T22:35:23.621Z,25.70
2017-07-24T22:37:50.836Z,25.30
2017-07-24T22:40:17.885Z,25.30
2017-07-24T22:42:47.477Z,25.10
2017-07-24T22:45:17.600Z,25.60
2017-07-24T22:47:47.145Z,25.50
2017-07-24T22:50:17.382Z,24.60
2017-07-24T22:52:47.447Z,24.70
2017-07-24T22:55:16.985Z,24.60
2017-07-24T22:57:45.910Z,24.30
2017-07-24T23:00:14.921Z,24.30
2017-07-24T23:02:43.494Z,24.60
2017-07-24T23:05:12.178Z,25.10
2017-07-24T23:07:40.576Z,25.60
2017-07-24T23:10:08.098Z,25.30
2017-07-24T23:12:38.172Z,25.00
2017-07-24T23:15:07.412Z,24.90
2017-07-24T23:17:36.570Z,24.40
2017-07-24T23:20:05.917Z,24.90
2017-07-24T23:22:35.631Z,24.90
2017-07-24T23:25:04.703Z,25.60
2017-07-24T23:27:33.204Z,25.40
2017-07-24T23:30:01.760Z,24.70
2017-07-24T23:32:28.800Z,25.40
2017-07-24T23:34:56.601Z,24.50
2017-07-24T23:37:23.649Z,24.40
2017-07-24T23:39:50.696Z,23.90
2017-07-24T23:42:17.728Z,24.30
2017-07-24T23:44:44.793Z,25.00
2017-07-24T23:47:11.832Z,24.80
2017-07-24T23:49:38.867Z,25.10
2017-07-24T23:52:06.693Z,24.90
2017-07-24T23:54:33.811Z,24.90
2017-07-24T23:57:00.875Z,24.60
2017-07-24T23:59:27.901Z,24.40
